createdAt,value
2022-09-12T00:00:07.368Z,16.97
2022-09-12T00:02:33.766Z,17.13
2022-09-12T00:05:00.197Z,16.42
2022-09-12T00:07:26.611Z,18.08
2022-09-12T00:09:53.018Z,15.70
2022-09-12T00:12:19.495Z,16.43
2022-09-12T00:14:45.918Z,15.68
2022-09-12T00:17:12.366Z,15.70
2022-09-12T00:19:38.772Z,16.08
2022-09-12T00:22:05.150Z,16.70
2022-09-12T00:24:31.559Z,16.40
2022-09-12T00:26:57.897Z,17.02
2022-09-12T00:29:24.336Z,16.80
2022-09-12T00:31:50.847Z,15.75
2022-09-12T00:34:17.526Z,15.63
2022-09-12T00:36:44.036Z,16.73
2022-09-12T00:39:17.181Z,16.77
2022-09-12T00:41:44.471Z,17.05
2022-09-12T00:44:10.839Z,16.08
2022-09-12T00:46:48.758Z,16.50
2022-09-12T00:49:21.317Z,17.30
2022-09-12T00:51:52.625Z,16.67
2022-09-12T00:54:24.005Z,16.70
2022-09-12T00:56:55.912Z,16.85
2022-09-12T00:59:28.516Z,16.35
2022-09-12T01:01:56.197Z,16.53
2022-09-12T01:04:25.780Z,17.02
2022-09-12T01:06:54.352Z,17.00
2022-09-12T01:09:22.772Z,16.77
2022-09-12T01:11:51.131Z,18.02
2022-09-12T01:14:18.029Z,17.77
2022-09-12T01:16:45.722Z,17.05
2022-09-12T01:19:43.135Z,17.60
2022-09-12T01:22:31.204Z,18.13
2022-09-12T01:25:32.967Z,18.35
2022-09-12T01:28:21.327Z,17.80
2022-09-12T01:31:05.799Z,17.92
2022-09-12T01:33:39.872Z,18.08
2022-09-12T01:37:01.673Z,18.48
2022-09-12T01:39:47.604Z,17.70
2022-09-12T01:42:26.831Z,18.23
2022-09-12T01:45:01.711Z,18.40
2022-09-12T01:47:39.554Z,18.63
2022-09-12T01:50:10.643Z,17.92
2022-09-12T01:52:54.589Z,18.50
2022-09-12T01:55:26.678Z,19.47
2022-09-12T01:58:05.031Z,19.17
2022-09-12T02:00:35.494Z,17.85
2022-09-12T02:03:09.514Z,19.40
2022-09-12T02:06:10.306Z,18.77
2022-09-12T02:08:43.444Z,19.43
2022-09-12T02:11:11.668Z,19.10
2022-09-12T02:13:50.584Z,19.08
2022-09-12T02:16:34.528Z,19.10
2022-09-12T02:19:09.580Z,18.90
2022-09-12T02:21:39.994Z,19.37
2022-09-12T02:24:09.633Z,19.27
2022-09-12T02:26:46.488Z,20.90
2022-09-12T02:29:13.054Z,20.08
2022-09-12T02:31:47.923Z,20.90
2022-09-12T02:34:38.758Z,20.83
2022-09-12T02:37:14.534Z,20.95
2022-09-12T02:39:44.968Z,20.58
2022-09-12T02:42:12.274Z,19.90
2022-09-12T02:44:39.288Z,20.90
2022-09-12T02:47:11.019Z,20.03
2022-09-12T02:49:37.499Z,20.95
2022-09-12T02:52:04.041Z,20.25
2022-09-12T02:54:31.214Z,21.70
2022-09-12T02:56:57.679Z,21.92
2022-09-12T02:59:25.092Z,21.07
2022-09-12T03:02:11.998Z,21.35
2022-09-12T03:04:48.939Z,22.35
2022-09-12T03:07:39.927Z,21.65
2022-09-12T03:10:24.872Z,22.10
2022-09-12T03:13:20.382Z,21.80
2022-09-12T03:15:57.820Z,21.38
2022-09-12T03:18:32.868Z,20.35
2022-09-12T03:21:18.084Z,20.95
2022-09-12T03:23:59.703Z,20.73
2022-09-12T03:26:32.945Z,21.27
2022-09-12T03:29:01.698Z,21.42
2022-09-12T03:31:28.224Z,22.60
2022-09-12T03:33:54.710Z,22.40
2022-09-12T03:36:24.578Z,22.38
2022-09-12T03:38:51.690Z,21.43
2022-09-12T03:41:18.499Z,21.95
2022-09-12T03:43:45.498Z,22.42
2022-09-12T03:46:12.319Z,22.55
2022-09-12T03:48:38.800Z,22.80
2022-09-12T03:51:07.804Z,23.77
2022-09-12T03:53:34.690Z,22.05
2022-09-12T03:56:06.566Z,23.20
2022-09-12T03:58:32.986Z,23.20
2022-09-12T04:00:59.522Z,22.48
2022-09-12T04:03:25.966Z,24.07
2022-09-12T04:05:52.370Z,22.90
2022-09-12T04:08:19.023Z,23.15
2022-09-12T04:10:46.971Z,23.85
2022-09-12T04:13:13.446Z,22.70
2022-09-12T04:15:39.845Z,24.23
2022-09-12T04:18:06.345Z,23.98
2022-09-12T04:20:32.755Z,22.15
2022-09-12T04:22:59.163Z,22.50
2022-09-12T04:25:25.576Z,24.48
2022-09-12T04:27:52.027Z,22.77
2022-09-12T04:30:19.008Z,22.30
2022-09-12T04:32:45.435Z,22.83
2022-09-12T04:35:11.794Z,23.67
2022-09-12T04:37:38.218Z,24.02
2022-09-12T04:40:04.922Z,23.93
2022-09-12T04:42:31.368Z,24.80
2022-09-12T04:44:57.767Z,22.75
2022-09-12T04:47:24.112Z,24.90
2022-09-12T04:49:50.512Z,24.95
2022-09-12T04:52:16.970Z,23.57
2022-09-12T04:54:43.439Z,25.88
2022-09-12T04:57:10.522Z,24.55
2022-09-12T04:59:38.370Z,24.92
2022-09-12T05:02:04.869Z,24.80
2022-09-12T05:04:31.584Z,25.00
2022-09-12T05:06:58.083Z,25.48
2022-09-12T05:09:24.565Z,25.55
2022-09-12T05:12:06.884Z,23.30
2022-09-12T05:14:34.246Z,26.30
2022-09-12T05:17:01.525Z,23.77
2022-09-12T05:19:29.382Z,23.40
2022-09-12T05:21:55.795Z,24.83
2022-09-12T05:24:22.268Z,26.75
2022-09-12T05:26:49.085Z,24.58
2022-09-12T05:29:15.909Z,24.20
2022-09-12T05:31:42.446Z,26.85
2022-09-12T05:34:09.460Z,25.15
2022-09-12T05:36:36.304Z,24.45
2022-09-12T05:39:03.659Z,26.60
2022-09-12T05:41:31.953Z,26.87
2022-09-12T05:44:00.779Z,27.33
2022-09-12T05:46:29.989Z,25.60
2022-09-12T05:48:56.948Z,24.30
2022-09-12T05:51:28.872Z,24.95
2022-09-12T05:53:57.591Z,24.80
2022-09-12T05:56:26.431Z,25.27
2022-09-12T05:58:57.100Z,25.77
2022-09-12T06:01:24.259Z,27.15
2022-09-12T06:03:53.185Z,25.80
2022-09-12T06:06:22.392Z,26.63
2022-09-12T06:08:51.378Z,25.70
2022-09-12T06:11:21.041Z,26.80
2022-09-12T06:13:47.897Z,27.80
2022-09-12T06:16:16.976Z,26.50
2022-09-12T06:18:48.947Z,27.30
2022-09-12T06:21:16.040Z,27.83
2022-09-12T06:23:43.024Z,26.17
2022-09-12T06:26:10.667Z,26.48
2022-09-12T06:28:39.732Z,24.52
2022-09-12T06:31:11.455Z,26.83
2022-09-12T06:33:40.758Z,26.08
2022-09-12T06:36:16.435Z,25.60
2022-09-12T06:38:43.105Z,26.00
2022-09-12T06:41:11.848Z,26.38
2022-09-12T06:43:39.124Z,25.93
2022-09-12T06:46:06.048Z,25.13
2022-09-12T06:48:32.603Z,24.92
2022-09-12T06:51:09.065Z,24.40
2022-09-12T06:53:36.209Z,23.48
2022-09-12T06:56:06.210Z,23.93
2022-09-12T06:58:33.999Z,23.50
2022-09-12T07:01:06.416Z,21.60
2022-09-12T07:03:34.180Z,21.92
2022-09-12T07:06:09.776Z,22.15
2022-09-12T07:08:36.717Z,20.73
2022-09-12T07:11:10.539Z,21.90
2022-09-12T07:13:37.438Z,21.25
2022-09-12T07:16:05.563Z,21.50
2022-09-12T07:18:35.355Z,21.15
2022-09-12T07:21:02.663Z,20.20
2022-09-12T07:23:32.313Z,21.65
2022-09-12T07:26:00.733Z,19.98
2022-09-12T07:28:29.554Z,20.40
2022-09-12T07:30:56.984Z,21.00
2022-09-12T07:33:27.344Z,20.03
2022-09-12T07:35:54.068Z,20.20
2022-09-12T07:38:21.733Z,19.98
2022-09-12T07:40:48.802Z,19.10
2022-09-12T07:43:15.265Z,19.95
2022-09-12T07:45:41.760Z,18.50
2022-09-12T07:48:09.114Z,17.90
2022-09-12T07:50:36.236Z,19.25
2022-09-12T07:53:04.119Z,19.30
2022-09-12T07:55:31.439Z,19.10
2022-09-12T07:57:57.991Z,18.43
2022-09-12T08:00:24.426Z,19.08
2022-09-12T08:02:52.219Z,17.33
2022-09-12T08:05:19.448Z,17.63
2022-09-12T08:07:45.957Z,18.77
2022-09-12T08:10:12.726Z,17.80
2022-09-12T08:12:39.160Z,16.58
2022-09-12T08:15:06.085Z,16.92
2022-09-12T08:17:32.555Z,16.05
2022-09-12T08:19:58.951Z,16.83
2022-09-12T08:22:25.370Z,16.33
2022-09-12T08:24:51.818Z,15.18
2022-09-12T08:27:18.848Z,16.10
2022-09-12T08:29:45.298Z,14.27
2022-09-12T08:32:11.768Z,14.55
2022-09-12T08:34:38.221Z,14.47
2022-09-12T08:37:04.762Z,13.68
2022-09-12T08:39:31.356Z,12.70
2022-09-12T08:42:06.257Z,12.00
2022-09-12T08:45:04.245Z,12.45
2022-09-12T08:47:39.938Z,11.53
2022-09-12T08:50:09.229Z,11.35
2022-09-12T08:52:54.076Z,11.93
2022-09-12T08:55:37.531Z,10.77
2022-09-12T08:58:19.342Z,9.70
2022-09-12T09:00:54.735Z,9.87
2022-09-12T09:03:36.959Z,11.30
2022-09-12T09:06:29.369Z,10.25
2022-09-12T09:09:08.137Z,11.10
2022-09-12T09:11:40.813Z,9.57
2022-09-12T09:14:20.255Z,8.67
2022-09-12T09:16:49.966Z,8.70
2022-09-12T09:19:16.346Z,8.90
2022-09-12T09:21:59.825Z,8.30
2022-09-12T09:24:39.782Z,7.53
2022-09-12T09:27:40.558Z,7.53
2022-09-12T09:30:19.993Z,8.10
2022-09-12T09:32:51.036Z,7.53
2022-09-12T09:35:20.552Z,7.22
2022-09-12T09:38:24.546Z,5.93
2022-09-12T09:40:50.979Z,5.10
2022-09-12T09:43:25.981Z,5.82
2022-09-12T09:45:52.941Z,5.75
2022-09-12T09:48:44.434Z,5.93
2022-09-12T09:51:11.783Z,4.65
2022-09-12T09:53:49.016Z,5.00
2022-09-12T09:56:39.212Z,5.00
2022-09-12T09:59:18.057Z,4.90
2022-09-12T10:01:45.392Z,5.03
2022-09-12T10:04:19.293Z,4.82
2022-09-12T10:06:45.825Z,5.07
2022-09-12T10:09:14.938Z,4.78
2022-09-12T10:11:45.690Z,4.78
2022-09-12T10:14:29.659Z,4.22
2022-09-12T10:16:56.433Z,4.50
2022-09-12T10:19:33.097Z,5.00
2022-09-12T10:22:00.152Z,4.40
2022-09-12T10:24:34.873Z,4.10
2022-09-12T10:27:12.286Z,4.32
2022-09-12T10:29:46.626Z,4.78
2022-09-12T10:32:21.318Z,4.50
2022-09-12T10:34:48.013Z,4.40
2022-09-12T10:37:23.611Z,5.03
2022-09-12T10:39:55.973Z,4.65
2022-09-12T10:42:45.973Z,4.45
2022-09-12T10:45:41.490Z,4.23
2022-09-12T10:48:23.001Z,4.22
2022-09-12T10:50:49.473Z,4.00
2022-09-12T10:53:21.716Z,4.70
2022-09-12T10:55:51.186Z,4.30
2022-09-12T10:58:31.999Z,3.90
2022-09-12T11:01:23.190Z,3.95
2022-09-12T11:04:26.439Z,3.88
2022-09-12T11:07:19.525Z,4.40
2022-09-12T11:10:04.724Z,4.47
2022-09-12T11:12:55.866Z,3.90
2022-09-12T11:15:46.743Z,4.07
2022-09-12T11:18:49.131Z,4.07
2022-09-12T11:21:34.031Z,4.60
2022-09-12T11:24:15.484Z,4.30
2022-09-12T11:26:57.294Z,4.33
2022-09-12T11:29:49.082Z,4.90
2022-09-12T11:32:46.302Z,4.57
2022-09-12T11:35:17.624Z,4.50
2022-09-12T11:38:02.999Z,4.20
2022-09-12T11:40:42.094Z,3.80
2022-09-12T11:43:14.671Z,3.85
2022-09-12T11:45:45.919Z,4.63
2022-09-12T11:48:19.872Z,4.20
2022-09-12T11:50:46.307Z,4.80
2022-09-12T11:53:31.672Z,4.20
2022-09-12T11:56:06.006Z,4.00
2022-09-12T11:58:32.697Z,4.03
2022-09-12T12:01:21.504Z,4.20
2022-09-12T12:03:49.224Z,4.25
2022-09-12T12:06:26.868Z,4.40
2022-09-12T12:08:53.881Z,4.20
2022-09-12T12:11:44.722Z,4.15
2022-09-12T12:14:22.510Z,4.10
2022-09-12T12:16:50.116Z,4.30
2022-09-12T12:19:16.478Z,3.70
2022-09-12T12:21:52.445Z,3.72
2022-09-12T12:24:25.962Z,4.00
2022-09-12T12:27:03.629Z,4.10
2022-09-12T12:29:44.113Z,3.90
2022-09-12T12:32:10.783Z,3.97
2022-09-12T12:34:38.617Z,3.83
2022-09-12T12:37:20.303Z,3.90
2022-09-12T12:39:46.780Z,4.63
2022-09-12T12:42:35.051Z,4.30
2022-09-12T12:45:04.077Z,3.93
2022-09-12T12:47:36.525Z,4.00
2022-09-12T12:50:10.447Z,3.58
2022-09-12T12:52:58.729Z,3.60
2022-09-12T12:55:35.753Z,4.18
2022-09-12T12:58:03.512Z,4.60
2022-09-12T13:00:40.082Z,3.90
2022-09-12T13:03:11.234Z,4.03
2022-09-12T13:05:46.866Z,3.25
2022-09-12T13:08:19.305Z,3.03
2022-09-12T13:10:54.385Z,3.13
2022-09-12T13:13:31.315Z,3.40
2022-09-12T13:15:58.252Z,3.30
2022-09-12T13:18:38.906Z,3.80
2022-09-12T13:21:13.200Z,3.70
2022-09-12T13:23:40.257Z,3.70
2022-09-12T13:26:25.197Z,3.30
2022-09-12T13:29:19.254Z,3.30
2022-09-12T13:31:49.013Z,3.17
2022-09-12T13:34:22.504Z,3.30
2022-09-12T13:37:16.773Z,3.20
2022-09-12T13:40:16.984Z,3.20
2022-09-12T13:42:48.941Z,3.30
2022-09-12T13:45:20.033Z,3.65
2022-09-12T13:47:50.439Z,3.70
2022-09-12T13:50:22.689Z,3.80
2022-09-12T13:52:55.721Z,3.60
2022-09-12T13:55:41.211Z,3.42
2022-09-12T13:58:34.175Z,4.70
2022-09-12T14:01:14.087Z,3.60
2022-09-12T14:03:43.265Z,3.47
2022-09-12T14:06:10.238Z,3.40
2022-09-12T14:08:40.283Z,3.45
2022-09-12T14:11:29.518Z,3.50
2022-09-12T14:13:59.924Z,3.22
2022-09-12T14:16:26.380Z,2.97
2022-09-12T14:18:52.887Z,2.90
2022-09-12T14:21:28.090Z,3.00
2022-09-12T14:23:54.762Z,3.20
2022-09-12T14:26:21.286Z,3.78
2022-09-12T14:28:48.182Z,3.20
2022-09-12T14:31:14.628Z,3.20
2022-09-12T14:34:08.595Z,3.20
2022-09-12T14:37:06.290Z,3.10
2022-09-12T14:39:44.745Z,3.10
2022-09-12T14:42:22.337Z,2.57
2022-09-12T14:45:15.555Z,2.90
2022-09-12T14:47:43.948Z,2.75
2022-09-12T14:50:24.408Z,2.70
2022-09-12T14:53:20.833Z,2.90
2022-09-12T14:55:58.685Z,2.50
2022-09-12T14:58:28.148Z,2.90
2022-09-12T15:01:01.636Z,2.80
2022-09-12T15:03:32.118Z,2.80
2022-09-12T15:06:00.056Z,2.88
2022-09-12T15:08:26.986Z,2.67
2022-09-12T15:10:53.478Z,2.78
2022-09-12T15:13:22.783Z,2.83
2022-09-12T15:15:52.528Z,2.80
2022-09-12T15:18:20.538Z,2.90
2022-09-12T15:20:50.729Z,2.80
2022-09-12T15:23:38.815Z,2.92
2022-09-12T15:26:05.967Z,2.95
2022-09-12T15:28:33.543Z,3.22
2022-09-12T15:31:24.382Z,3.10
2022-09-12T15:33:51.142Z,3.03
2022-09-12T15:36:20.509Z,3.00
2022-09-12T15:38:47.838Z,2.75
2022-09-12T15:41:20.664Z,3.80
2022-09-12T15:43:47.987Z,3.20
2022-09-12T15:46:16.016Z,3.00
2022-09-12T15:48:42.784Z,2.85
2022-09-12T15:51:15.626Z,3.10
2022-09-12T15:53:43.261Z,2.90
2022-09-12T15:56:09.835Z,3.10
2022-09-12T15:58:36.517Z,3.00
2022-09-12T16:01:03.518Z,3.20
2022-09-12T16:03:30.529Z,3.00
2022-09-12T16:05:59.250Z,3.00
2022-09-12T16:08:25.872Z,3.17
2022-09-12T16:10:59.084Z,3.13
2022-09-12T16:13:26.537Z,2.85
2022-09-12T16:15:57.335Z,3.08
2022-09-12T16:18:24.486Z,2.80
2022-09-12T16:20:54.746Z,3.10
2022-09-12T16:23:21.588Z,3.23
2022-09-12T16:25:58.164Z,2.90
2022-09-12T16:28:24.696Z,3.03
2022-09-12T16:30:58.858Z,2.90
2022-09-12T16:33:26.436Z,2.92
2022-09-12T16:35:53.122Z,2.93
2022-09-12T16:38:19.698Z,3.03
2022-09-12T16:40:48.614Z,3.05
2022-09-12T16:43:15.041Z,2.95
2022-09-12T16:45:41.550Z,2.70
2022-09-12T16:48:08.124Z,2.60
2022-09-12T16:50:34.657Z,2.90
2022-09-12T16:53:01.172Z,3.10
2022-09-12T16:55:27.645Z,2.95
2022-09-12T16:57:54.251Z,3.00
2022-09-12T17:00:21.100Z,3.10
2022-09-12T17:02:47.599Z,3.10
2022-09-12T17:05:15.298Z,2.80
2022-09-12T17:07:42.254Z,2.72
2022-09-12T17:10:08.943Z,3.08
2022-09-12T17:12:35.444Z,2.80
2022-09-12T17:15:01.933Z,2.92
2022-09-12T17:17:28.363Z,2.90
2022-09-12T17:19:54.773Z,2.80
2022-09-12T17:22:21.194Z,2.70
2022-09-12T17:24:47.987Z,2.90
2022-09-12T17:27:14.463Z,2.90
2022-09-12T17:29:40.872Z,2.85
2022-09-12T17:32:07.318Z,2.80
2022-09-12T17:34:33.813Z,3.00
2022-09-12T17:37:00.222Z,3.00
2022-09-12T17:39:26.790Z,3.10
2022-09-12T17:41:53.280Z,3.05
2022-09-12T17:44:19.832Z,3.22
2022-09-12T17:46:46.328Z,2.90
2022-09-12T17:49:18.091Z,2.90
2022-09-12T17:51:44.577Z,3.15
2022-09-12T17:54:14.415Z,3.10
2022-09-12T17:56:40.933Z,3.20
2022-09-12T17:59:08.952Z,3.00
2022-09-12T18:01:35.486Z,2.80
2022-09-12T18:04:02.124Z,2.97
2022-09-12T18:06:30.252Z,2.95
2022-09-12T18:09:00.659Z,3.10
2022-09-12T18:11:27.108Z,3.10
2022-09-12T18:13:53.634Z,2.90
2022-09-12T18:16:20.366Z,3.20
2022-09-12T18:18:46.961Z,3.15
2022-09-12T18:21:13.434Z,3.10
2022-09-12T18:23:39.917Z,3.10
2022-09-12T18:26:08.978Z,3.30
2022-09-12T18:28:37.526Z,3.17
2022-09-12T18:31:05.185Z,3.55
2022-09-12T18:33:31.622Z,3.55
2022-09-12T18:36:04.702Z,3.40
2022-09-12T18:38:31.406Z,3.60
2022-09-12T18:41:13.121Z,4.03
2022-09-12T18:43:39.705Z,3.60
2022-09-12T18:46:14.796Z,3.70
2022-09-12T18:48:41.918Z,3.40
2022-09-12T18:51:15.795Z,3.53
2022-09-12T18:53:42.745Z,3.90
2022-09-12T18:56:12.138Z,4.10
2022-09-12T18:58:40.245Z,4.00
2022-09-12T19:01:15.337Z,4.40
2022-09-12T19:03:42.098Z,4.10
2022-09-12T19:06:17.525Z,4.05
2022-09-12T19:08:45.394Z,4.53
2022-09-12T19:11:12.221Z,3.90
2022-09-12T19:13:41.986Z,3.90
2022-09-12T19:16:11.133Z,4.10
2022-09-12T19:18:39.078Z,4.10
2022-09-12T19:21:07.527Z,4.10
2022-09-12T19:23:35.227Z,4.45
2022-09-12T19:26:06.240Z,4.13
2022-09-12T19:28:32.942Z,4.33
2022-09-12T19:30:59.457Z,4.38
2022-09-12T19:33:26.084Z,4.53
2022-09-12T19:35:52.573Z,4.80
2022-09-12T19:38:19.295Z,4.72
2022-09-12T19:40:59.080Z,4.70
2022-09-12T19:43:25.928Z,4.90
2022-09-12T19:45:52.900Z,4.75
2022-09-12T19:48:21.034Z,4.80
2022-09-12T19:50:48.436Z,5.15
2022-09-12T19:53:16.023Z,5.10
2022-09-12T19:55:43.287Z,5.05
2022-09-12T19:58:09.718Z,5.53
2022-09-12T20:00:36.937Z,5.35
2022-09-12T20:03:04.727Z,5.13
2022-09-12T20:05:34.600Z,5.00
2022-09-12T20:08:01.671Z,5.18
2022-09-12T20:10:28.315Z,6.07
2022-09-12T20:12:54.729Z,5.97
2022-09-12T20:15:21.219Z,5.63
2022-09-12T20:17:48.110Z,5.73
2022-09-12T20:20:14.545Z,5.45
2022-09-12T20:22:40.983Z,5.43
2022-09-12T20:25:08.027Z,6.13
2022-09-12T20:27:34.468Z,6.32
2022-09-12T20:30:00.882Z,5.80
2022-09-12T20:32:27.303Z,6.18
2022-09-12T20:34:53.721Z,6.30
2022-09-12T20:37:20.203Z,6.03
2022-09-12T20:39:50.627Z,6.18
2022-09-12T20:42:17.318Z,19.47
2022-09-12T20:44:43.788Z,7.95
2022-09-12T20:47:10.232Z,6.70
2022-09-12T20:49:36.693Z,6.40
2022-09-12T20:52:03.315Z,5.97
2022-09-12T20:54:29.731Z,6.43
2022-09-12T20:56:56.169Z,6.07
2022-09-12T20:59:22.600Z,6.13
2022-09-12T21:01:49.580Z,5.88
2022-09-12T21:04:16.173Z,5.90
2022-09-12T21:06:42.612Z,6.07
2022-09-12T21:09:09.177Z,5.85
2022-09-12T21:11:35.664Z,5.97
2022-09-12T21:14:02.234Z,6.22
2022-09-12T21:16:28.717Z,6.00
2022-09-12T21:18:57.712Z,6.30
2022-09-12T21:21:25.312Z,6.25
2022-09-12T21:23:51.904Z,5.75
2022-09-12T21:26:18.950Z,6.03
2022-09-12T21:28:45.435Z,6.72
2022-09-12T21:31:11.904Z,6.10
2022-09-12T21:33:38.426Z,6.40
2022-09-12T21:36:06.308Z,6.30
2022-09-12T21:38:33.147Z,6.07
2022-09-12T21:41:07.767Z,6.32
2022-09-12T21:43:34.734Z,6.70
2022-09-12T21:46:02.171Z,6.57
2022-09-12T21:48:29.045Z,6.80
2022-09-12T21:50:55.432Z,5.97
2022-09-12T21:53:22.361Z,6.50
2022-09-12T21:55:49.116Z,6.73
2022-09-12T21:58:16.013Z,7.10
2022-09-12T22:00:43.214Z,7.93
2022-09-12T22:03:10.690Z,7.38
2022-09-12T22:05:38.577Z,7.53
2022-09-12T22:08:05.047Z,7.80
2022-09-12T22:10:31.450Z,7.28
2022-09-12T22:12:58.109Z,7.90
2022-09-12T22:15:41.453Z,8.10
2022-09-12T22:18:08.208Z,8.32
2022-09-12T22:20:34.608Z,8.40
2022-09-12T22:23:01.063Z,8.77
2022-09-12T22:25:27.632Z,8.68
2022-09-12T22:27:54.877Z,8.43
2022-09-12T22:30:22.111Z,8.35
2022-09-12T22:32:49.957Z,9.13
2022-09-12T22:35:18.363Z,8.90
2022-09-12T22:37:44.824Z,9.18
2022-09-12T22:40:11.773Z,10.25
2022-09-12T22:42:38.478Z,9.55
2022-09-12T22:45:06.006Z,9.43
2022-09-12T22:47:32.459Z,8.70
2022-09-12T22:49:58.871Z,8.88
2022-09-12T22:52:25.368Z,9.07
2022-09-12T22:54:51.847Z,10.05
2022-09-12T22:57:19.102Z,10.60
2022-09-12T22:59:45.580Z,10.88
2022-09-12T23:02:12.036Z,9.90
2022-09-12T23:04:38.475Z,9.48
2022-09-12T23:07:05.079Z,10.38
2022-09-12T23:09:35.241Z,10.23
2022-09-12T23:12:02.702Z,10.05
2022-09-12T23:14:29.362Z,9.85
2022-09-12T23:16:55.786Z,10.07
2022-09-12T23:19:22.382Z,10.15
2022-09-12T23:21:48.985Z,10.37
2022-09-12T23:24:15.425Z,11.00
2022-09-12T23:26:41.927Z,11.13
2022-09-12T23:29:08.892Z,10.48
2022-09-12T23:31:35.429Z,10.32
2022-09-12T23:34:04.829Z,10.20
2022-09-12T23:36:31.387Z,11.23
2022-09-12T23:38:57.907Z,11.82
2022-09-12T23:41:24.716Z,10.80
2022-09-12T23:43:51.257Z,10.45
2022-09-12T23:46:19.250Z,10.83
2022-09-12T23:48:45.894Z,10.40
2022-09-12T23:51:12.836Z,10.40
2022-09-12T23:53:39.875Z,10.18
2022-09-12T23:56:06.503Z,10.32
2022-09-12T23:58:33.155Z,10.37
